Chomedey, Canada
Current Conditions -  °F | °C
As of 9:00 AM on Tuesday 27 Jan 2015 (Local Time) from CYUL Reporting Station
Broken Clouds Broken Clouds  
Wind Chill: -27°   Ceiling: 18000
Heat Index: -15°   Visibility: 30mi
Dew Point: -20°   Wind: 21mph
Humidity: 66%   Direction: 20°NNE
Pressure: 30.12"   Gusts: 32mph
Location:  45.55°N, 73.73°W
Report Text: CYUL 271400Z 02018G28KT 30SM FEW020 BKN180 M15/M20 A3012 RMK CF1AC7 CF TR SLP201
Loading
Personal Weather Stations






























Interactive Weather Map New forecast layout! Learn more

10-Day Weather Forecast

Advertisements
Track Severe Weather on mobile